sensor_id;sensor_type;location;lat;lon;timestamp;temperature;humidity
24384;DHT22;12504;52.870;8.798;2022-09-01T00:00:59;13.20;92.50
24384;DHT22;12504;52.870;8.798;2022-09-01T00:03:28;13.10;96.00
24384;DHT22;12504;52.870;8.798;2022-09-01T00:05:54;13.00;96.70
24384;DHT22;12504;52.870;8.798;2022-09-01T00:08:22;13.00;96.60
24384;DHT22;12504;52.870;8.798;2022-09-01T00:10:48;13.00;96.50
24384;DHT22;12504;52.870;8.798;2022-09-01T00:13:14;13.00;99.90
24384;DHT22;12504;52.870;8.798;2022-09-01T00:15:41;12.90;99.90
24384;DHT22;12504;52.870;8.798;2022-09-01T00:18:07;12.80;99.90
24384;DHT22;12504;52.870;8.798;2022-09-01T00:20:35;12.80;99.90
24384;DHT22;12504;52.870;8.798;2022-09-01T00:23:00;12.80;99.90
24384;DHT22;12504;52.870;8.798;2022-09-01T00:25:27;12.70;99.90
24384;DHT22;12504;52.870;8.798;2022-09-01T00:27:53;12.70;99.90
24384;DHT22;12504;52.870;8.798;2022-09-01T00:30:23;12.70;99.90
24384;DHT22;12504;52.870;8.798;2022-09-01T00:32:50;12.60;99.90
24384;DHT22;12504;52.870;8.798;2022-09-01T00:35:17;12.60;99.90
24384;DHT22;12504;52.870;8.798;2022-09-01T00:37:44;12.60;99.90
24384;DHT22;12504;52.870;8.798;2022-09-01T00:40:11;12.60;99.90
24384;DHT22;12504;52.870;8.798;2022-09-01T00:42:39;12.60;99.90
24384;DHT22;12504;52.870;8.798;2022-09-01T00:45:08;12.50;99.90
24384;DHT22;12504;52.870;8.798;2022-09-01T00:47:35;12.50;99.90
24384;DHT22;12504;52.870;8.798;2022-09-01T00:50:03;12.50;99.90
24384;DHT22;12504;52.870;8.798;2022-09-01T00:52:34;12.50;99.90
24384;DHT22;12504;52.870;8.798;2022-09-01T00:55:07;12.40;99.90
24384;DHT22;12504;52.870;8.798;2022-09-01T00:57:34;12.40;99.90
24384;DHT22;12504;52.870;8.798;2022-09-01T01:00:08;12.30;99.90
24384;DHT22;12504;52.870;8.798;2022-09-01T01:02:36;12.30;99.90
24384;DHT22;12504;52.870;8.798;2022-09-01T01:05:04;12.30;99.90
24384;DHT22;12504;52.870;8.798;2022-09-01T01:07:31;12.30;99.90
24384;DHT22;12504;52.870;8.798;2022-09-01T01:10:02;12.20;99.90
24384;DHT22;12504;52.870;8.798;2022-09-01T01:12:28;12.20;99.90
24384;DHT22;12504;52.870;8.798;2022-09-01T01:14:55;12.20;99.90
24384;DHT22;12504;52.870;8.798;2022-09-01T01:17:22;12.20;99.90
24384;DHT22;12504;52.870;8.798;2022-09-01T01:19:51;12.10;99.90
24384;DHT22;12504;52.870;8.798;2022-09-01T01:22:44;12.10;99.90
24384;DHT22;12504;52.870;8.798;2022-09-01T01:25:48;12.00;99.90
24384;DHT22;12504;52.870;8.798;2022-09-01T01:28:21;12.00;99.90
24384;DHT22;12504;52.870;8.798;2022-09-01T01:30:58;12.00;99.90
24384;DHT22;12504;52.870;8.798;2022-09-01T01:33:35;12.00;99.90
24384;DHT22;12504;52.870;8.798;2022-09-01T01:36:16;12.00;99.90
24384;DHT22;12504;52.870;8.798;2022-09-01T01:38:45;12.00;99.90
24384;DHT22;12504;52.870;8.798;2022-09-01T01:41:13;12.00;99.90
24384;DHT22;12504;52.870;8.798;2022-09-01T01:43:40;12.00;99.90
24384;DHT22;12504;52.870;8.798;2022-09-01T01:46:08;12.00;99.90
24384;DHT22;12504;52.870;8.798;2022-09-01T01:48:39;12.00;99.90
24384;DHT22;12504;52.870;8.798;2022-09-01T01:51:08;12.00;99.90
24384;DHT22;12504;52.870;8.798;2022-09-01T01:53:36;12.00;99.90
24384;DHT22;12504;52.870;8.798;2022-09-01T01:56:03;11.90;99.90
24384;DHT22;12504;52.870;8.798;2022-09-01T01:58:33;11.90;99.90
24384;DHT22;12504;52.870;8.798;2022-09-01T02:01:06;11.90;99.90
24384;DHT22;12504;52.870;8.798;2022-09-01T02:03:35;11.80;99.90
24384;DHT22;12504;52.870;8.798;2022-09-01T02:06:05;11.80;99.90
24384;DHT22;12504;52.870;8.798;2022-09-01T02:08:34;11.80;99.90
24384;DHT22;12504;52.870;8.798;2022-09-01T02:11:02;11.80;99.90
24384;DHT22;12504;52.870;8.798;2022-09-01T02:13:30;11.80;99.90
24384;DHT22;12504;52.870;8.798;2022-09-01T02:16:07;11.80;99.90
24384;DHT22;12504;52.870;8.798;2022-09-01T02:18:39;11.80;99.90
24384;DHT22;12504;52.870;8.798;2022-09-01T02:21:09;11.70;99.90
24384;DHT22;12504;52.870;8.798;2022-09-01T02:23:37;11.60;99.90
24384;DHT22;12504;52.870;8.798;2022-09-01T02:26:05;11.60;99.90
24384;DHT22;12504;52.870;8.798;2022-09-01T02:28:37;11.50;99.90
24384;DHT22;12504;52.870;8.798;2022-09-01T02:31:08;11.60;99.90
24384;DHT22;12504;52.870;8.798;2022-09-01T02:33:36;11.50;99.90
24384;DHT22;12504;52.870;8.798;2022-09-01T02:36:09;11.50;99.90
24384;DHT22;12504;52.870;8.798;2022-09-01T02:38:39;11.60;99.90
24384;DHT22;12504;52.870;8.798;2022-09-01T02:41:12;11.60;99.90
24384;DHT22;12504;52.870;8.798;2022-09-01T02:43:40;11.60;99.90
24384;DHT22;12504;52.870;8.798;2022-09-01T02:46:10;11.60;99.90
24384;DHT22;12504;52.870;8.798;2022-09-01T02:48:39;11.60;99.90
24384;DHT22;12504;52.870;8.798;2022-09-01T02:51:13;11.50;99.90
24384;DHT22;12504;52.870;8.798;2022-09-01T02:53:41;11.50;99.90
24384;DHT22;12504;52.870;8.798;2022-09-01T02:56:10;11.50;99.90
24384;DHT22;12504;52.870;8.798;2022-09-01T02:58:42;11.50;99.90
24384;DHT22;12504;52.870;8.798;2022-09-01T03:01:18;11.50;99.90
24384;DHT22;12504;52.870;8.798;2022-09-01T03:03:48;11.50;99.90
24384;DHT22;12504;52.870;8.798;2022-09-01T03:06:16;11.50;99.90
24384;DHT22;12504;52.870;8.798;2022-09-01T03:08:45;11.50;99.90
24384;DHT22;12504;52.870;8.798;2022-09-01T03:11:11;11.50;99.90
24384;DHT22;12504;52.870;8.798;2022-09-01T03:13:39;11.50;99.90
24384;DHT22;12504;52.870;8.798;2022-09-01T03:16:07;11.50;99.90
24384;DHT22;12504;52.870;8.798;2022-09-01T03:18:34;11.50;99.90
24384;DHT22;12504;52.870;8.798;2022-09-01T03:21:01;11.50;99.90
24384;DHT22;12504;52.870;8.798;2022-09-01T03:23:29;11.50;99.90
24384;DHT22;12504;52.870;8.798;2022-09-01T03:25:56;11.50;99.90
24384;DHT22;12504;52.870;8.798;2022-09-01T03:28:23;11.50;99.90
24384;DHT22;12504;52.870;8.798;2022-09-01T03:30:53;11.40;99.90
24384;DHT22;12504;52.870;8.798;2022-09-01T03:33:21;11.40;99.90
24384;DHT22;12504;52.870;8.798;2022-09-01T03:35:48;11.40;99.90
24384;DHT22;12504;52.870;8.798;2022-09-01T03:38:15;11.40;99.90
24384;DHT22;12504;52.870;8.798;2022-09-01T03:40:54;11.40;99.90
24384;DHT22;12504;52.870;8.798;2022-09-01T03:43:26;11.40;99.90
24384;DHT22;12504;52.870;8.798;2022-09-01T03:45:54;11.40;99.90
24384;DHT22;12504;52.870;8.798;2022-09-01T03:48:22;11.40;99.90
24384;DHT22;12504;52.870;8.798;2022-09-01T03:50:51;11.40;99.90
24384;DHT22;12504;52.870;8.798;2022-09-01T03:53:20;11.40;99.90
24384;DHT22;12504;52.870;8.798;2022-09-01T03:55:48;11.40;99.90
24384;DHT22;12504;52.870;8.798;2022-09-01T03:58:18;11.40;99.90
24384;DHT22;12504;52.870;8.798;2022-09-01T04:00:47;11.40;99.90
24384;DHT22;12504;52.870;8.798;2022-09-01T04:03:15;11.30;99.90
24384;DHT22;12504;52.870;8.798;2022-09-01T04:05:50;11.30;99.90
24384;DHT22;12504;52.870;8.798;2022-09-01T04:08:18;11.20;99.90
24384;DHT22;12504;52.870;8.798;2022-09-01T04:10:47;11.20;99.90
24384;DHT22;12504;52.870;8.798;2022-09-01T04:13:26;11.20;99.90
24384;DHT22;12504;52.870;8.798;2022-09-01T04:15:53;11.20;99.90
24384;DHT22;12504;52.870;8.798;2022-09-01T04:18:21;11.10;99.90
24384;DHT22;12504;52.870;8.798;2022-09-01T04:20:58;11.10;99.90
24384;DHT22;12504;52.870;8.798;2022-09-01T04:23:27;11.00;99.90
24384;DHT22;12504;52.870;8.798;2022-09-01T04:26:06;11.00;99.90
24384;DHT22;12504;52.870;8.798;2022-09-01T04:28:41;11.00;99.90
24384;DHT22;12504;52.870;8.798;2022-09-01T04:31:13;11.00;99.90
24384;DHT22;12504;52.870;8.798;2022-09-01T05:46:15;12.30;99.90
24384;DHT22;12504;52.870;8.798;2022-09-01T05:51:11;13.30;99.90
24384;DHT22;12504;52.870;8.798;2022-09-01T05:53:41;14.00;99.90
24384;DHT22;12504;52.870;8.798;2022-09-01T05:56:09;15.00;99.90
24384;DHT22;12504;52.870;8.798;2022-09-01T05:58:40;15.80;92.70
24384;DHT22;12504;52.870;8.798;2022-09-01T06:01:08;16.40;1.00
24384;DHT22;12504;52.870;8.798;2022-09-01T06:03:35;16.70;1.00
24384;DHT22;12504;52.870;8.798;2022-09-01T06:06:04;16.70;1.00
24384;DHT22;12504;52.870;8.798;2022-09-01T06:08:33;16.40;1.00
24384;DHT22;12504;52.870;8.798;2022-09-01T06:11:01;16.00;1.00
24384;DHT22;12504;52.870;8.798;2022-09-01T06:13:29;15.70;1.00
24384;DHT22;12504;52.870;8.798;2022-09-01T06:15:55;15.40;30.30
24384;DHT22;12504;52.870;8.798;2022-09-01T06:18:22;15.10;52.50
24384;DHT22;12504;52.870;8.798;2022-09-01T06:20:55;14.90;69.10
24384;DHT22;12504;52.870;8.798;2022-09-01T06:23:23;14.70;94.90
24384;DHT22;12504;52.870;8.798;2022-09-01T06:25:49;14.60;99.90
24384;DHT22;12504;52.870;8.798;2022-09-01T06:28:19;14.60;99.90
24384;DHT22;12504;52.870;8.798;2022-09-01T06:30:46;14.50;99.90
24384;DHT22;12504;52.870;8.798;2022-09-01T06:33:14;14.40;99.90
24384;DHT22;12504;52.870;8.798;2022-09-01T06:35:45;14.40;99.90
24384;DHT22;12504;52.870;8.798;2022-09-01T06:38:13;14.40;99.90
24384;DHT22;12504;52.870;8.798;2022-09-01T06:40:45;14.40;99.90
24384;DHT22;12504;52.870;8.798;2022-09-01T06:43:13;14.40;99.90
24384;DHT22;12504;52.870;8.798;2022-09-01T06:45:46;14.40;99.90
24384;DHT22;12504;52.870;8.798;2022-09-01T06:48:21;14.50;99.90
24384;DHT22;12504;52.870;8.798;2022-09-01T06:50:49;14.50;99.90
24384;DHT22;12504;52.870;8.798;2022-09-01T06:53:16;14.50;99.90
24384;DHT22;12504;52.870;8.798;2022-09-01T06:55:47;14.60;99.90
24384;DHT22;12504;52.870;8.798;2022-09-01T06:58:14;14.70;99.90
24384;DHT22;12504;52.870;8.798;2022-09-01T07:00:45;14.70;99.90
24384;DHT22;12504;52.870;8.798;2022-09-01T07:03:14;14.80;99.90
24384;DHT22;12504;52.870;8.798;2022-09-01T07:05:55;14.90;99.90
24384;DHT22;12504;52.870;8.798;2022-09-01T07:08:41;14.90;99.90
24384;DHT22;12504;52.870;8.798;2022-09-01T07:11:30;15.10;99.90
24384;DHT22;12504;52.870;8.798;2022-09-01T07:14:00;15.10;99.90
24384;DHT22;12504;52.870;8.798;2022-09-01T07:16:34;15.20;99.90
24384;DHT22;12504;52.870;8.798;2022-09-01T07:19:07;15.30;99.90
24384;DHT22;12504;52.870;8.798;2022-09-01T07:21:43;15.40;80.20
24384;DHT22;12504;52.870;8.798;2022-09-01T07:24:12;15.50;88.00
24384;DHT22;12504;52.870;8.798;2022-09-01T07:26:49;15.60;80.90
24384;DHT22;12504;52.870;8.798;2022-09-01T07:29:17;15.70;41.50
24384;DHT22;12504;52.870;8.798;2022-09-01T07:31:46;15.80;27.40
24384;DHT22;12504;52.870;8.798;2022-09-01T07:34:13;15.90;24.90
24384;DHT22;12504;52.870;8.798;2022-09-01T07:36:42;16.00;11.40
24384;DHT22;12504;52.870;8.798;2022-09-01T07:39:10;16.10;14.10
24384;DHT22;12504;52.870;8.798;2022-09-01T07:41:36;16.20;8.70
24384;DHT22;12504;52.870;8.798;2022-09-01T07:44:05;16.20;1.00
24384;DHT22;12504;52.870;8.798;2022-09-01T07:46:53;16.40;1.00
24384;DHT22;12504;52.870;8.798;2022-09-01T07:49:19;16.50;1.00
24384;DHT22;12504;52.870;8.798;2022-09-01T07:51:45;16.60;1.00
24384;DHT22;12504;52.870;8.798;2022-09-01T07:54:18;16.60;1.00
24384;DHT22;12504;52.870;8.798;2022-09-01T07:56:47;16.80;1.00
24384;DHT22;12504;52.870;8.798;2022-09-01T07:59:13;16.90;1.00
24384;DHT22;12504;52.870;8.798;2022-09-01T08:01:47;17.00;1.00
24384;DHT22;12504;52.870;8.798;2022-09-01T08:04:13;17.20;1.00
24384;DHT22;12504;52.870;8.798;2022-09-01T08:06:41;17.30;1.00
24384;DHT22;12504;52.870;8.798;2022-09-01T08:09:08;17.40;1.00
24384;DHT22;12504;52.870;8.798;2022-09-01T08:11:35;17.50;99.90
24384;DHT22;12504;52.870;8.798;2022-09-01T08:14:01;17.60;99.90
24384;DHT22;12504;52.870;8.798;2022-09-01T08:16:30;17.70;99.90
24384;DHT22;12504;52.870;8.798;2022-09-01T08:18:58;17.80;99.90
24384;DHT22;12504;52.870;8.798;2022-09-01T08:21:33;17.90;99.90
24384;DHT22;12504;52.870;8.798;2022-09-01T08:24:26;17.90;99.90
24384;DHT22;12504;52.870;8.798;2022-09-01T08:26:51;18.10;99.90
24384;DHT22;12504;52.870;8.798;2022-09-01T08:29:17;18.10;99.90
24384;DHT22;12504;52.870;8.798;2022-09-01T08:31:45;18.30;99.90
24384;DHT22;12504;52.870;8.798;2022-09-01T08:34:11;18.40;99.90
24384;DHT22;12504;52.870;8.798;2022-09-01T08:36:37;18.50;99.90
24384;DHT22;12504;52.870;8.798;2022-09-01T08:39:04;18.50;1.00
24384;DHT22;12504;52.870;8.798;2022-09-01T08:41:56;18.40;1.00
24384;DHT22;12504;52.870;8.798;2022-09-01T08:44:36;18.40;1.00
24384;DHT22;12504;52.870;8.798;2022-09-01T08:47:09;18.40;1.00
24384;DHT22;12504;52.870;8.798;2022-09-01T08:49:37;18.50;1.00
24384;DHT22;12504;52.870;8.798;2022-09-01T08:57:44;18.70;1.00
24384;DHT22;12504;52.870;8.798;2022-09-01T09:00:18;19.10;1.00
24384;DHT22;12504;52.870;8.798;2022-09-01T09:06:01;19.40;1.00
24384;DHT22;12504;52.870;8.798;2022-09-01T09:08:43;19.50;1.00
24384;DHT22;12504;52.870;8.798;2022-09-01T09:16:47;19.80;1.00
24384;DHT22;12504;52.870;8.798;2022-09-01T09:21:56;19.80;1.00
24384;DHT22;12504;52.870;8.798;2022-09-01T09:24:29;19.80;1.00
24384;DHT22;12504;52.870;8.798;2022-09-01T09:29:59;20.10;1.00
24384;DHT22;12504;52.870;8.798;2022-09-01T09:33:04;20.10;1.00
24384;DHT22;12504;52.870;8.798;2022-09-01T09:35:39;20.10;1.00
24384;DHT22;12504;52.870;8.798;2022-09-01T09:43:29;20.30;99.90
24384;DHT22;12504;52.870;8.798;2022-09-01T09:46:19;20.40;99.90
24384;DHT22;12504;52.870;8.798;2022-09-01T09:48:46;20.40;99.90
24384;DHT22;12504;52.870;8.798;2022-09-01T09:51:18;20.40;99.90
24384;DHT22;12504;52.870;8.798;2022-09-01T09:53:44;20.50;99.90
24384;DHT22;12504;52.870;8.798;2022-09-01T09:56:23;20.60;99.90
24384;DHT22;12504;52.870;8.798;2022-09-01T09:58:51;20.50;99.90
24384;DHT22;12504;52.870;8.798;2022-09-01T10:03:52;20.80;99.90
24384;DHT22;12504;52.870;8.798;2022-09-01T10:09:01;20.90;99.90
24384;DHT22;12504;52.870;8.798;2022-09-01T10:11:35;20.90;99.90
24384;DHT22;12504;52.870;8.798;2022-09-01T10:14:05;21.00;99.90
24384;DHT22;12504;52.870;8.798;2022-09-01T10:16:33;21.00;99.90
24384;DHT22;12504;52.870;8.798;2022-09-01T10:19:04;21.10;99.90
24384;DHT22;12504;52.870;8.798;2022-09-01T10:21:37;21.10;99.90
24384;DHT22;12504;52.870;8.798;2022-09-01T10:26:43;21.10;99.90
24384;DHT22;12504;52.870;8.798;2022-09-01T10:29:16;21.10;99.90
24384;DHT22;12504;52.870;8.798;2022-09-01T10:31:45;21.10;99.90
24384;DHT22;12504;52.870;8.798;2022-09-01T10:34:14;21.10;99.90
24384;DHT22;12504;52.870;8.798;2022-09-01T10:36:43;21.20;99.90
24384;DHT22;12504;52.870;8.798;2022-09-01T10:39:11;21.20;99.90
24384;DHT22;12504;52.870;8.798;2022-09-01T10:44:54;21.20;99.90
24384;DHT22;12504;52.870;8.798;2022-09-01T10:47:32;21.30;99.90
24384;DHT22;12504;52.870;8.798;2022-09-01T10:50:05;21.40;99.90
24384;DHT22;12504;52.870;8.798;2022-09-01T10:55:19;21.60;99.90
24384;DHT22;12504;52.870;8.798;2022-09-01T11:06:00;21.80;99.90
24384;DHT22;12504;52.870;8.798;2022-09-01T11:13:45;22.10;99.90
24384;DHT22;12504;52.870;8.798;2022-09-01T11:18:53;22.10;99.90
24384;DHT22;12504;52.870;8.798;2022-09-01T11:21:28;22.20;99.90
24384;DHT22;12504;52.870;8.798;2022-09-01T11:27:54;24.60;99.90
24384;DHT22;12504;52.870;8.798;2022-09-01T11:30:01;26.40;22.40
24384;DHT22;12504;52.870;8.798;2022-09-01T11:32:34;27.90;1.00
24384;DHT22;12504;52.870;8.798;2022-09-01T11:35:04;28.40;1.00
24384;DHT22;12504;52.870;8.798;2022-09-01T11:37:31;29.30;99.90
24384;DHT22;12504;52.870;8.798;2022-09-01T11:39:59;29.90;99.90
24384;DHT22;12504;52.870;8.798;2022-09-01T11:42:38;30.00;99.90
24384;DHT22;12504;52.870;8.798;2022-09-01T11:45:12;29.50;1.00
24384;DHT22;12504;52.870;8.798;2022-09-01T11:47:41;29.70;1.00
24384;DHT22;12504;52.870;8.798;2022-09-01T11:50:19;30.20;1.00
24384;DHT22;12504;52.870;8.798;2022-09-01T11:53:42;30.40;1.00
24384;DHT22;12504;52.870;8.798;2022-09-01T11:55:46;30.20;1.00
24384;DHT22;12504;52.870;8.798;2022-09-01T12:00:53;30.20;99.90
24384;DHT22;12504;52.870;8.798;2022-09-01T12:03:27;30.20;99.90
24384;DHT22;12504;52.870;8.798;2022-09-01T12:05:59;30.20;99.90
24384;DHT22;12504;52.870;8.798;2022-09-01T12:08:54;30.20;99.90
24384;DHT22;12504;52.870;8.798;2022-09-01T12:11:28;30.80;99.90
24384;DHT22;12504;52.870;8.798;2022-09-01T12:13:59;31.20;99.90
24384;DHT22;12504;52.870;8.798;2022-09-01T12:16:27;31.10;99.90
24384;DHT22;12504;52.870;8.798;2022-09-01T12:18:55;30.20;60.20
24384;DHT22;12504;52.870;8.798;2022-09-01T12:21:36;29.70;38.20
24384;DHT22;12504;52.870;8.798;2022-09-01T12:24:23;29.60;16.10
24384;DHT22;12504;52.870;8.798;2022-09-01T12:26:51;30.10;67.90
24384;DHT22;12504;52.870;8.798;2022-09-01T12:29:24;30.10;28.60
24384;DHT22;12504;52.870;8.798;2022-09-01T12:31:51;30.20;1.00
24384;DHT22;12504;52.870;8.798;2022-09-01T12:47:07;27.90;1.00
24384;DHT22;12504;52.870;8.798;2022-09-01T12:49:47;28.20;1.00
24384;DHT22;12504;52.870;8.798;2022-09-01T12:54:45;28.60;1.00
24384;DHT22;12504;52.870;8.798;2022-09-01T12:57:25;28.20;1.00
24384;DHT22;12504;52.870;8.798;2022-09-01T13:00:23;26.70;1.00
24384;DHT22;12504;52.870;8.798;2022-09-01T13:03:02;25.60;1.00
24384;DHT22;12504;52.870;8.798;2022-09-01T13:08:17;26.00;1.00
24384;DHT22;12504;52.870;8.798;2022-09-01T13:10:48;25.90;1.00
24384;DHT22;12504;52.870;8.798;2022-09-01T13:13:15;26.10;1.00
24384;DHT22;12504;52.870;8.798;2022-09-01T13:15:44;26.40;1.00
24384;DHT22;12504;52.870;8.798;2022-09-01T13:18:13;26.30;1.00
24384;DHT22;12504;52.870;8.798;2022-09-01T13:20:39;26.10;1.00
24384;DHT22;12504;52.870;8.798;2022-09-01T13:23:07;25.50;1.00
24384;DHT22;12504;52.870;8.798;2022-09-01T13:25:33;24.80;1.00
24384;DHT22;12504;52.870;8.798;2022-09-01T13:27:58;24.70;1.00
24384;DHT22;12504;52.870;8.798;2022-09-01T13:30:28;24.90;1.00
24384;DHT22;12504;52.870;8.798;2022-09-01T13:32:55;25.20;1.00
24384;DHT22;12504;52.870;8.798;2022-09-01T13:35:22;25.50;1.00
24384;DHT22;12504;52.870;8.798;2022-09-01T13:37:48;25.90;1.00
24384;DHT22;12504;52.870;8.798;2022-09-01T13:40:16;25.90;1.00
24384;DHT22;12504;52.870;8.798;2022-09-01T13:42:43;25.50;1.00
24384;DHT22;12504;52.870;8.798;2022-09-01T13:45:10;25.40;1.00
24384;DHT22;12504;52.870;8.798;2022-09-01T13:47:41;25.40;1.00
24384;DHT22;12504;52.870;8.798;2022-09-01T13:50:07;25.60;1.00
24384;DHT22;12504;52.870;8.798;2022-09-01T13:52:35;25.30;1.00
24384;DHT22;12504;52.870;8.798;2022-09-01T13:55:02;25.20;1.00
24384;DHT22;12504;52.870;8.798;2022-09-01T13:57:28;24.90;1.00
24384;DHT22;12504;52.870;8.798;2022-09-01T13:59:56;25.00;1.00
24384;DHT22;12504;52.870;8.798;2022-09-01T14:02:23;25.00;1.00
24384;DHT22;12504;52.870;8.798;2022-09-01T14:04:48;25.10;1.00
24384;DHT22;12504;52.870;8.798;2022-09-01T14:07:14;25.00;1.00
24384;DHT22;12504;52.870;8.798;2022-09-01T14:09:43;25.20;1.00
24384;DHT22;12504;52.870;8.798;2022-09-01T14:12:09;25.20;1.00
24384;DHT22;12504;52.870;8.798;2022-09-01T14:14:35;25.40;1.00
24384;DHT22;12504;52.870;8.798;2022-09-01T14:17:00;25.40;1.00
24384;DHT22;12504;52.870;8.798;2022-09-01T14:19:28;25.60;1.00
24384;DHT22;12504;52.870;8.798;2022-09-01T14:21:55;25.40;1.00
24384;DHT22;12504;52.870;8.798;2022-09-01T14:24:21;25.20;1.00
24384;DHT22;12504;52.870;8.798;2022-09-01T14:26:47;25.30;1.00
24384;DHT22;12504;52.870;8.798;2022-09-01T14:29:15;25.40;1.00
24384;DHT22;12504;52.870;8.798;2022-09-01T14:31:41;25.50;1.00
24384;DHT22;12504;52.870;8.798;2022-09-01T14:34:09;25.50;1.00
24384;DHT22;12504;52.870;8.798;2022-09-01T14:36:37;25.20;1.00
24384;DHT22;12504;52.870;8.798;2022-09-01T14:39:03;25.00;1.00
24384;DHT22;12504;52.870;8.798;2022-09-01T14:41:29;25.00;1.00
24384;DHT22;12504;52.870;8.798;2022-09-01T14:43:56;25.00;1.00
24384;DHT22;12504;52.870;8.798;2022-09-01T14:46:26;25.10;1.00
24384;DHT22;12504;52.870;8.798;2022-09-01T14:48:55;25.30;1.00
24384;DHT22;12504;52.870;8.798;2022-09-01T14:51:26;25.20;1.00
24384;DHT22;12504;52.870;8.798;2022-09-01T14:53:53;25.40;1.00
24384;DHT22;12504;52.870;8.798;2022-09-01T14:56:20;25.20;1.00
24384;DHT22;12504;52.870;8.798;2022-09-01T14:58:46;24.70;1.00
24384;DHT22;12504;52.870;8.798;2022-09-01T15:01:15;24.30;1.00
24384;DHT22;12504;52.870;8.798;2022-09-01T15:03:41;23.90;1.00
24384;DHT22;12504;52.870;8.798;2022-09-01T15:06:13;23.80;1.00
24384;DHT22;12504;52.870;8.798;2022-09-01T15:08:40;23.90;1.00
24384;DHT22;12504;52.870;8.798;2022-09-01T15:11:11;23.80;1.00
24384;DHT22;12504;52.870;8.798;2022-09-01T15:13:38;23.90;1.00
24384;DHT22;12504;52.870;8.798;2022-09-01T15:16:05;23.90;1.00
24384;DHT22;12504;52.870;8.798;2022-09-01T15:18:36;24.30;1.00
24384;DHT22;12504;52.870;8.798;2022-09-01T15:21:03;24.30;1.00
24384;DHT22;12504;52.870;8.798;2022-09-01T15:23:29;24.50;1.00
24384;DHT22;12504;52.870;8.798;2022-09-01T15:25:55;24.50;1.00
24384;DHT22;12504;52.870;8.798;2022-09-01T15:28:23;24.80;1.00
24384;DHT22;12504;52.870;8.798;2022-09-01T15:30:49;24.80;1.00
24384;DHT22;12504;52.870;8.798;2022-09-01T15:33:16;24.80;1.00
24384;DHT22;12504;52.870;8.798;2022-09-01T15:35:43;24.90;1.00
24384;DHT22;12504;52.870;8.798;2022-09-01T15:38:09;24.90;1.00
24384;DHT22;12504;52.870;8.798;2022-09-01T15:40:40;24.60;1.00
24384;DHT22;12504;52.870;8.798;2022-09-01T15:43:06;24.20;1.00
24384;DHT22;12504;52.870;8.798;2022-09-01T15:45:32;24.00;1.00
24384;DHT22;12504;52.870;8.798;2022-09-01T15:47:58;24.10;1.00
24384;DHT22;12504;52.870;8.798;2022-09-01T15:50:25;24.00;1.00
24384;DHT22;12504;52.870;8.798;2022-09-01T15:52:53;23.80;1.00
24384;DHT22;12504;52.870;8.798;2022-09-01T15:55:23;23.70;1.00
24384;DHT22;12504;52.870;8.798;2022-09-01T15:57:49;23.80;1.00
24384;DHT22;12504;52.870;8.798;2022-09-01T16:00:16;24.00;1.00
24384;DHT22;12504;52.870;8.798;2022-09-01T16:02:42;24.10;1.00
24384;DHT22;12504;52.870;8.798;2022-09-01T16:05:08;24.30;1.00
24384;DHT22;12504;52.870;8.798;2022-09-01T16:07:35;24.40;1.00
24384;DHT22;12504;52.870;8.798;2022-09-01T16:10:00;24.60;1.00
24384;DHT22;12504;52.870;8.798;2022-09-01T16:12:26;24.50;1.00
24384;DHT22;12504;52.870;8.798;2022-09-01T16:14:53;24.40;1.00
24384;DHT22;12504;52.870;8.798;2022-09-01T16:17:57;24.40;1.00
24384;DHT22;12504;52.870;8.798;2022-09-01T16:20:34;24.40;1.00
24384;DHT22;12504;52.870;8.798;2022-09-01T16:23:19;24.20;1.00
24384;DHT22;12504;52.870;8.798;2022-09-01T16:25:45;24.40;1.00
24384;DHT22;12504;52.870;8.798;2022-09-01T16:28:27;24.20;1.00
24384;DHT22;12504;52.870;8.798;2022-09-01T16:30:58;24.30;1.00
24384;DHT22;12504;52.870;8.798;2022-09-01T16:33:25;24.00;1.00
24384;DHT22;12504;52.870;8.798;2022-09-01T16:39:15;23.50;1.00
24384;DHT22;12504;52.870;8.798;2022-09-01T16:48:40;23.50;1.00
24384;DHT22;12504;52.870;8.798;2022-09-01T16:57:29;23.70;1.00
24384;DHT22;12504;52.870;8.798;2022-09-01T16:59:59;23.70;1.00
24384;DHT22;12504;52.870;8.798;2022-09-01T17:02:50;23.50;1.00
24384;DHT22;12504;52.870;8.798;2022-09-01T17:05:37;23.40;1.00
24384;DHT22;12504;52.870;8.798;2022-09-01T17:08:17;23.30;1.00
24384;DHT22;12504;52.870;8.798;2022-09-01T17:10:51;23.20;1.00
24384;DHT22;12504;52.870;8.798;2022-09-01T17:13:35;23.20;1.00
24384;DHT22;12504;52.870;8.798;2022-09-01T17:18:52;22.90;1.00
24384;DHT22;12504;52.870;8.798;2022-09-01T17:21:31;22.70;1.00
24384;DHT22;12504;52.870;8.798;2022-09-01T17:26:45;22.50;1.00
24384;DHT22;12504;52.870;8.798;2022-09-01T17:32:19;22.20;1.00
24384;DHT22;12504;52.870;8.798;2022-09-01T17:38:01;21.90;1.00
24384;DHT22;12504;52.870;8.798;2022-09-01T17:43:28;21.50;1.00
24384;DHT22;12504;52.870;8.798;2022-09-01T17:55:00;20.80;1.00
24384;DHT22;12504;52.870;8.798;2022-09-01T17:57:37;20.60;1.00
24384;DHT22;12504;52.870;8.798;2022-09-01T18:00:08;20.40;1.00
24384;DHT22;12504;52.870;8.798;2022-09-01T18:05:43;19.90;1.00
24384;DHT22;12504;52.870;8.798;2022-09-01T18:08:22;19.80;1.00
24384;DHT22;12504;52.870;8.798;2022-09-01T18:11:00;19.50;1.00
24384;DHT22;12504;52.870;8.798;2022-09-01T18:13:49;19.40;1.00
24384;DHT22;12504;52.870;8.798;2022-09-01T18:16:19;19.30;1.00
24384;DHT22;12504;52.870;8.798;2022-09-01T18:18:49;19.10;1.00
24384;DHT22;12504;52.870;8.798;2022-09-01T18:21:49;19.10;1.00
24384;DHT22;12504;52.870;8.798;2022-09-01T18:24:23;18.80;1.00
24384;DHT22;12504;52.870;8.798;2022-09-01T18:26:51;18.70;1.00
24384;DHT22;12504;52.870;8.798;2022-09-01T18:29:18;18.60;1.00
24384;DHT22;12504;52.870;8.798;2022-09-01T18:32:11;18.50;1.00
24384;DHT22;12504;52.870;8.798;2022-09-01T18:35:08;18.40;1.00
24384;DHT22;12504;52.870;8.798;2022-09-01T18:40:45;18.30;1.00
24384;DHT22;12504;52.870;8.798;2022-09-01T18:43:21;18.10;80.40
24384;DHT22;12504;52.870;8.798;2022-09-01T18:45:59;17.90;1.00
24384;DHT22;12504;52.870;8.798;2022-09-01T18:48:48;17.80;1.00
24384;DHT22;12504;52.870;8.798;2022-09-01T18:54:18;17.70;24.10
24384;DHT22;12504;52.870;8.798;2022-09-01T18:57:03;17.60;61.20
24384;DHT22;12504;52.870;8.798;2022-09-01T18:59:42;17.50;98.80
24384;DHT22;12504;52.870;8.798;2022-09-01T19:02:34;17.50;99.90
24384;DHT22;12504;52.870;8.798;2022-09-01T19:05:30;17.50;99.90
24384;DHT22;12504;52.870;8.798;2022-09-01T19:13:25;17.20;99.90
24384;DHT22;12504;52.870;8.798;2022-09-01T19:16:28;17.20;99.90
24384;DHT22;12504;52.870;8.798;2022-09-01T19:19:17;17.20;99.90
24384;DHT22;12504;52.870;8.798;2022-09-01T19:21:51;17.10;99.90
24384;DHT22;12504;52.870;8.798;2022-09-01T19:27:16;17.10;99.90
24384;DHT22;12504;52.870;8.798;2022-09-01T19:29:48;17.00;99.90
24384;DHT22;12504;52.870;8.798;2022-09-01T19:32:19;17.00;99.90
24384;DHT22;12504;52.870;8.798;2022-09-01T19:34:56;17.00;99.90